Time;durP1;ratioP1;P1;durP2;ratioP2;P2;SDS_P1;SDS_P2;PMS_P1;PMS_P2;Temp;Humidity;BMP_temperature;BMP_pressure;BME280_temperature;BME280_humidity;BME280_pressure;Samples;Min_cycle;Max_cycle;Signal;HPM_P1;HPM_P2
2021/03/13 00:04:48;;;;;;;2.03;0.80;;;20.10;49.50;;;;;;10455857;28;20554;-24
2021/03/13 00:10:10;;;;;;;1.67;0.90;;;20.10;49.50;;;;;;10455470;28;20204;-25
2021/03/13 00:15:33;;;;;;;1.77;1.10;;;20.10;49.60;;;;;;10455430;28;20224;-25
2021/03/13 00:20:55;;;;;;;0.97;0.63;;;20.10;49.60;;;;;;10477156;28;20202;-23
2021/03/13 00:26:16;;;;;;;0.67;0.67;;;20.10;49.60;;;;;;10496457;28;20614;-25
2021/03/13 00:31:39;;;;;;;1.20;0.70;;;20.10;49.50;;;;;;10495654;28;20266;-24
2021/03/13 00:37:00;;;;;;;0.93;0.80;;;20.10;49.40;;;;;;10475929;28;20695;-24
2021/03/13 00:42:22;;;;;;;1.70;0.70;;;20.10;49.40;;;;;;10452843;28;20222;-24
2021/03/13 00:47:45;;;;;;;1.30;0.80;;;20.00;49.40;;;;;;10469995;28;20618;-24
2021/03/13 00:53:07;;;;;;;1.83;0.90;;;20.00;49.50;;;;;;10463430;28;20236;-25
2021/03/13 00:58:29;;;;;;;1.17;0.80;;;20.00;49.50;;;;;;10452644;28;20611;-24
2021/03/13 01:03:51;;;;;;;1.10;0.60;;;20.00;49.40;;;;;;10453380;28;20218;-24
2021/03/13 01:09:13;;;;;;;1.03;0.60;;;20.00;49.50;;;;;;10452704;28;20200;-24
2021/03/13 01:14:34;;;;;;;1.20;0.87;;;20.00;49.60;;;;;;10452861;28;20221;-24
2021/03/13 01:19:57;;;;;;;3.30;0.80;;;20.00;49.60;;;;;;10458082;28;20572;-23
2021/03/13 01:25:19;;;;;;;1.13;0.80;;;20.00;49.60;;;;;;10487435;28;20213;-23
2021/03/13 01:30:41;;;;;;;0.80;0.60;;;19.90;49.70;;;;;;10493566;28;20310;-23
2021/03/13 01:36:05;;;;;;;0.53;0.43;;;20.00;49.90;;;;;;10494563;28;20213;-23
2021/03/13 01:41:27;;;;;;;1.13;0.80;;;20.00;49.80;;;;;;10457446;28;20216;-24
2021/03/13 01:46:48;;;;;;;0.83;0.60;;;20.00;49.70;;;;;;10452025;28;20220;-24
2021/03/13 01:52:11;;;;;;;0.97;0.70;;;19.90;49.80;;;;;;10451524;28;20216;-23
2021/03/13 01:57:33;;;;;;;1.13;0.60;;;19.90;49.90;;;;;;10452315;28;20189;-23
2021/03/13 02:02:54;;;;;;;1.00;0.60;;;19.90;49.90;;;;;;10477931;28;20219;-23
2021/03/13 02:08:24;;;;;;;0.73;0.57;;;19.90;49.80;;;;;;10491434;28;20257;-23
2021/03/13 02:13:55;;;;;;;0.63;0.63;;;19.90;49.70;;;;;;10455083;28;20209;-23
2021/03/13 02:19:36;;;;;;;0.60;0.53;;;19.90;49.80;;;;;;10463808;28;20212;-23
2021/03/13 02:25:06;;;;;;;0.63;0.50;;;19.80;49.90;;;;;;10458549;28;20212;-23
2021/03/13 02:30:30;;;;;;;1.07;0.50;;;19.80;49.90;;;;;;10467601;28;20191;-24
2021/03/13 02:35:56;;;;;;;1.13;0.70;;;19.90;49.90;;;;;;10469014;28;20220;-24
2021/03/13 02:41:20;;;;;;;1.00;0.60;;;19.80;49.80;;;;;;10469113;28;20214;-23
2021/03/13 02:46:45;;;;;;;0.80;0.60;;;19.80;49.90;;;;;;10467479;28;20204;-23
2021/03/13 02:52:08;;;;;;;0.90;0.60;;;19.80;50.00;;;;;;10459124;28;20227;-23
2021/03/13 02:57:30;;;;;;;0.60;0.50;;;19.80;50.00;;;;;;10458020;28;20201;-24
2021/03/13 03:02:56;;;;;;;0.60;0.60;;;19.80;49.90;;;;;;10499085;28;20591;-23
2021/03/13 03:08:18;;;;;;;0.53;0.40;;;19.80;50.00;;;;;;10499389;28;20252;-23
2021/03/13 03:13:41;;;;;;;0.90;0.57;;;19.80;50.20;;;;;;10499980;28;20212;-23
2021/03/13 03:19:04;;;;;;;0.80;0.60;;;19.80;50.10;;;;;;10478633;28;20192;-23
2021/03/13 03:24:25;;;;;;;0.93;0.60;;;19.80;50.00;;;;;;10465704;28;20209;-22
2021/03/13 03:29:47;;;;;;;1.17;0.50;;;19.80;50.10;;;;;;10475646;28;20198;-24
2021/03/13 03:35:11;;;;;;;0.60;0.40;;;19.80;50.30;;;;;;10498067;28;20734;-24
2021/03/13 03:40:34;;;;;;;1.17;0.60;;;19.70;50.20;;;;;;10458099;28;20200;-23
2021/03/13 03:45:58;;;;;;;1.30;0.60;;;19.70;50.20;;;;;;10457156;28;20284;-23
2021/03/13 03:51:27;;;;;;;0.90;0.47;;;19.70;50.10;;;;;;10458556;28;20215;-23
2021/03/13 03:56:50;;;;;;;0.90;0.50;;;19.80;50.20;;;;;;10457947;28;20222;-23
2021/03/13 04:02:13;;;;;;;1.17;0.80;;;19.70;50.30;;;;;;10456080;28;20215;-23
2021/03/13 04:07:37;;;;;;;0.90;0.50;;;19.70;50.30;;;;;;10454969;28;20664;-24
2021/03/13 04:13:00;;;;;;;1.00;0.67;;;19.70;50.20;;;;;;10462984;28;20656;-24
2021/03/13 04:18:22;;;;;;;0.50;0.50;;;19.70;50.20;;;;;;10470663;28;20256;-23
2021/03/13 04:23:47;;;;;;;1.23;0.70;;;19.70;50.80;;;;;;10497094;28;20227;-23
2021/03/13 04:29:09;;;;;;;1.03;0.60;;;19.70;50.40;;;;;;10496724;28;20548;-23
2021/03/13 04:34:31;;;;;;;1.20;0.70;;;19.70;50.30;;;;;;10464445;28;20222;-23
2021/03/13 04:39:54;;;;;;;0.87;0.70;;;19.70;50.20;;;;;;10454498;28;20569;-23
2021/03/13 04:45:17;;;;;;;2.00;0.70;;;19.70;50.20;;;;;;10454043;28;20696;-23
2021/03/13 04:50:39;;;;;;;0.87;0.70;;;19.70;50.40;;;;;;10465136;28;20205;-24
2021/03/13 04:56:02;;;;;;;0.90;0.70;;;19.60;50.40;;;;;;10454108;28;20220;-24
2021/03/13 05:01:23;;;;;;;1.37;0.60;;;19.60;50.30;;;;;;10452462;28;20213;-24
2021/03/13 05:06:45;;;;;;;0.50;0.43;;;19.60;50.30;;;;;;10453358;28;20243;-23
2021/03/13 05:12:08;;;;;;;0.83;0.50;;;19.60;50.30;;;;;;10452727;28;20212;-23
2021/03/13 05:17:30;;;;;;;0.90;0.50;;;19.60;50.40;;;;;;10484997;28;20185;-23
2021/03/13 05:22:52;;;;;;;0.87;0.60;;;19.60;50.40;;;;;;10453404;28;20212;-24
2021/03/13 05:28:14;;;;;;;1.00;0.57;;;19.60;50.30;;;;;;10452566;28;20741;-24
2021/03/13 05:33:36;;;;;;;1.03;0.63;;;19.60;50.30;;;;;;10453075;28;20239;-24
2021/03/13 05:38:57;;;;;;;0.83;0.50;;;19.60;50.40;;;;;;10452083;28;20205;-24
2021/03/13 05:44:20;;;;;;;0.77;0.60;;;19.70;50.30;;;;;;10476211;28;20711;-24
2021/03/13 05:49:44;;;;;;;0.90;0.63;;;19.70;50.10;;;;;;10480452;28;20689;-24
2021/03/13 05:55:09;;;;;;;0.80;0.50;;;19.80;50.00;;;;;;10454860;28;20223;-24
2021/03/13 06:00:32;;;;;;;1.07;0.57;;;19.80;49.90;;;;;;10454658;28;20192;-25
2021/03/13 06:05:54;;;;;;;1.33;0.80;;;19.80;50.00;;;;;;10459775;28;20213;-24
2021/03/13 06:11:17;;;;;;;0.93;0.50;;;19.80;50.10;;;;;;10450490;28;20194;-24
2021/03/13 06:16:40;;;;;;;1.20;0.77;;;19.80;50.00;;;;;;10451653;28;20217;-24
2021/03/13 06:22:01;;;;;;;1.53;0.60;;;19.90;49.90;;;;;;10492078;28;20564;-23
2021/03/13 06:27:23;;;;;;;0.90;0.60;;;19.90;49.70;;;;;;10486072;28;20200;-23
2021/03/13 06:32:45;;;;;;;0.73;0.53;;;19.90;49.70;;;;;;10458963;28;20607;-23
2021/03/13 06:38:14;;;;;;;0.90;0.60;;;19.80;49.80;;;;;;10479993;28;20194;-24
2021/03/13 06:43:36;;;;;;;0.90;0.60;;;19.90;49.80;;;;;;10493451;28;20266;-23
2021/03/13 06:48:59;;;;;;;1.53;0.80;;;19.90;49.70;;;;;;10475606;28;20223;-23
2021/03/13 06:54:20;;;;;;;1.03;0.53;;;20.00;49.70;;;;;;10492042;28;20595;-23
2021/03/13 06:59:49;;;;;;;0.40;0.37;;;20.00;49.60;;;;;;10460749;28;20893;-22
2021/03/13 07:05:13;;;;;;;1.20;0.43;;;20.00;49.80;;;;;;10450879;28;20211;-23
2021/03/13 07:10:34;;;;;;;1.20;0.60;;;19.90;49.90;;;;;;10458341;28;20205;-24
2021/03/13 07:15:56;;;;;;;0.80;0.43;;;19.90;49.80;;;;;;10458247;28;20225;-23
2021/03/13 07:21:20;;;;;;;1.87;0.50;;;20.00;49.70;;;;;;10497133;28;20562;-23
2021/03/13 07:26:43;;;;;;;0.33;0.30;;;20.00;49.60;;;;;;10483132;28;20549;-23
2021/03/13 07:32:06;;;;;;;0.60;0.40;;;20.00;49.70;;;;;;10466205;28;20224;-23
2021/03/13 07:37:32;;;;;;;0.60;0.43;;;20.00;49.80;;;;;;10457240;28;20330;-24
2021/03/13 07:42:55;;;;;;;1.10;0.60;;;20.00;49.80;;;;;;10456728;28;20328;-23
2021/03/13 07:48:17;;;;;;;1.23;0.50;;;20.00;49.80;;;;;;10457090;28;20193;-23
2021/03/13 07:53:42;;;;;;;0.77;0.60;;;20.00;49.70;;;;;;10456512;28;20710;-23
2021/03/13 07:59:04;;;;;;;0.50;0.50;;;20.00;49.80;;;;;;10467329;28;20288;-25
2021/03/13 08:04:52;;;;;;;1.70;0.50;;;19.90;49.90;;;;;;10455694;28;20320;-24
2021/03/13 08:10:44;;;;;;;0.67;0.50;;;19.90;49.90;;;;;;10453959;28;20212;-23
2021/03/13 08:16:07;;;;;;;1.60;0.37;;;19.90;49.70;;;;;;10455710;28;20242;-24
2021/03/13 08:21:45;;;;;;;2.43;0.40;;;20.00;49.80;;;;;;10454455;28;20491;-25
2021/03/13 08:27:12;;;;;;;1.50;0.37;;;20.10;49.70;;;;;;10474598;28;20193;-23
2021/03/13 08:33:05;;;;;;;0.77;0.40;;;20.00;49.90;;;;;;10459885;28;20212;-23
2021/03/13 08:38:54;;;;;;;1.23;0.40;;;20.00;49.90;;;;;;10495720;28;20216;-24
2021/03/13 08:44:32;;;;;;;0.50;0.50;;;20.00;49.80;;;;;;10483667;28;20265;-23
2021/03/13 08:49:54;;;;;;;2.53;0.43;;;20.10;49.80;;;;;;10462415;28;20244;-23
2021/03/13 08:55:31;;;;;;;2.13;0.60;;;19.90;50.40;;;;;;10463353;28;20599;-26
2021/03/13 09:00:54;;;;;;;1.37;0.40;;;19.80;50.90;;;;;;10453795;28;20238;-24
2021/03/13 09:06:17;;;;;;;2.37;0.60;;;19.70;51.10;;;;;;10452570;28;20190;-23
2021/03/13 09:11:40;;;;;;;1.43;0.63;;;19.70;51.20;;;;;;10453978;28;20224;-26
2021/03/13 09:17:08;;;;;;;6.70;1.93;;;19.70;51.30;;;;;;10452048;28;20306;-23
2021/03/13 09:22:30;;;;;;;19.23;2.83;;;19.80;52.00;;;;;;10485634;28;20216;-23
2021/03/13 09:27:52;;;;;;;8.10;2.37;;;20.20;51.60;;;;;;10482433;28;20188;-26
2021/03/13 09:33:22;;;;;;;4.97;2.30;;;19.90;50.20;;;;;;10492609;28;20281;-26
2021/03/13 09:38:54;;;;;;;2.00;1.30;;;19.70;49.10;;;;;;10494179;28;20192;-23
2021/03/13 09:44:31;;;;;;;4.77;0.90;;;19.60;48.00;;;;;;10494433;28;20210;-24
2021/03/13 09:49:55;;;;;;;0.60;0.50;;;19.60;48.10;;;;;;10491940;28;20188;-24
2021/03/13 09:55:19;;;;;;;4.00;0.93;;;19.50;46.50;;;;;;10492925;28;20331;-24
2021/03/13 10:00:43;;;;;;;2.80;0.77;;;19.40;46.50;;;;;;10478921;28;20207;-24
2021/03/13 10:06:06;;;;;;;1.90;0.73;;;19.30;46.30;;;;;;10474288;28;20199;-25
2021/03/13 10:11:41;;;;;;;0.70;0.60;;;19.30;46.60;;;;;;10492878;28;20633;-25
2021/03/13 10:17:03;;;;;;;1.80;0.73;;;19.30;45.90;;;;;;10489607;28;20227;-26
2021/03/13 10:22:26;;;;;;;1.93;0.57;;;19.30;45.60;;;;;;10472920;28;20227;-26
2021/03/13 10:27:47;;;;;;;1.60;0.80;;;19.30;45.30;;;;;;10489731;28;20196;-24
2021/03/13 10:33:10;;;;;;;1.67;0.70;;;19.20;45.50;;;;;;10484626;28;20224;-23
2021/03/13 10:38:39;;;;;;;1.30;0.53;;;19.20;45.60;;;;;;10494386;28;20219;-25
2021/03/13 10:44:01;;;;;;;1.70;0.50;;;19.20;45.40;;;;;;10500657;28;20208;-24
2021/03/13 10:49:27;;;;;;;2.63;0.53;;;19.20;45.80;;;;;;10487145;28;20201;-25
2021/03/13 10:54:50;;;;;;;1.70;0.50;;;19.30;45.90;;;;;;10497122;28;20614;-24
2021/03/13 11:00:12;;;;;;;3.47;0.80;;;19.20;45.90;;;;;;10528528;28;20218;-25
2021/03/13 11:05:34;;;;;;;2.73;0.83;;;19.20;49.10;;;;;;10520256;28;20211;-24
2021/03/13 11:10:58;;;;;;;3.80;0.63;;;19.20;50.30;;;;;;10498276;28;20578;-25
2021/03/13 11:16:21;;;;;;;2.47;0.90;;;19.10;50.40;;;;;;10497569;28;20216;-24
2021/03/13 11:21:43;;;;;;;2.10;0.90;;;19.20;50.30;;;;;;10470664;28;20227;-23
2021/03/13 11:27:06;;;;;;;3.50;0.60;;;19.20;50.50;;;;;;10491041;28;20193;-24
2021/03/13 11:32:28;;;;;;;1.20;0.60;;;19.20;50.80;;;;;;10469146;28;20565;-23
2021/03/13 11:37:51;;;;;;;2.13;0.60;;;19.30;51.00;;;;;;10493037;28;20196;-24
2021/03/13 11:43:13;;;;;;;8.47;1.73;;;19.20;51.10;;;;;;10493200;28;20587;-24
2021/03/13 11:48:35;;;;;;;5.97;1.90;;;19.40;51.60;;;;;;10456419;28;20193;-24
2021/03/13 11:53:57;;;;;;;5.57;1.40;;;19.50;51.10;;;;;;10455190;28;20221;-24
2021/03/13 11:59:19;;;;;;;2.57;1.17;;;19.50;50.80;;;;;;10456423;28;20198;-25
2021/03/13 12:04:42;;;;;;;2.57;1.10;;;19.50;50.90;;;;;;10469588;28;20557;-24
2021/03/13 12:10:05;;;;;;;3.63;1.10;;;19.50;51.00;;;;;;10454918;28;20193;-24
2021/03/13 12:15:27;;;;;;;2.20;0.93;;;19.40;51.10;;;;;;10453642;28;20224;-24
2021/03/13 12:20:49;;;;;;;3.17;1.30;;;19.30;51.10;;;;;;10488445;28;20196;-23
2021/03/13 12:26:11;;;;;;;5.30;1.20;;;19.30;51.50;;;;;;10488856;28;20276;-24
2021/03/13 12:31:33;;;;;;;3.47;1.20;;;19.50;51.80;;;;;;10455094;28;20224;-24
2021/03/13 12:36:55;;;;;;;4.57;1.30;;;19.50;51.80;;;;;;10464056;28;20220;-23
2021/03/13 12:42:17;;;;;;;3.90;1.60;;;19.50;52.10;;;;;;10476445;28;20728;-23
2021/03/13 12:47:39;;;;;;;4.43;1.70;;;19.60;52.10;;;;;;10496117;28;20200;-25
2021/03/13 12:53:01;;;;;;;6.80;1.70;;;19.60;52.00;;;;;;10495904;28;20213;-23
2021/03/13 12:58:23;;;;;;;3.60;1.60;;;19.80;51.80;;;;;;10489609;28;20200;-23
2021/03/13 13:03:53;;;;;;;5.37;1.60;;;19.80;51.80;;;;;;10462337;28;20263;-23
2021/03/13 13:09:15;;;;;;;4.83;1.33;;;19.80;51.70;;;;;;10450859;28;20193;-23
2021/03/13 13:14:37;;;;;;;2.73;1.40;;;19.80;51.90;;;;;;10451516;28;20217;-23
2021/03/13 13:20:00;;;;;;;3.80;1.47;;;19.70;51.90;;;;;;10475859;28;20704;-24
2021/03/13 13:25:22;;;;;;;3.20;1.50;;;19.60;52.00;;;;;;10494169;28;20220;-24
2021/03/13 13:30:44;;;;;;;4.13;1.60;;;19.50;52.30;;;;;;10485403;28;20204;-24
2021/03/13 13:36:08;;;;;;;4.90;1.70;;;19.50;52.40;;;;;;10452647;28;20212;-24
2021/03/13 13:41:29;;;;;;;5.03;1.40;;;19.50;52.50;;;;;;10465691;28;20216;-23
2021/03/13 13:46:51;;;;;;;3.23;1.50;;;19.50;52.60;;;;;;10453940;28;20737;-23
2021/03/13 13:52:13;;;;;;;7.47;1.90;;;19.50;52.60;;;;;;10451043;28;20270;-24
2021/03/13 13:57:36;;;;;;;3.60;1.43;;;19.50;52.70;;;;;;10454494;28;20220;-23
2021/03/13 14:02:58;;;;;;;4.70;1.80;;;19.50;52.80;;;;;;10481701;28;20560;-23
2021/03/13 14:08:20;;;;;;;6.97;1.67;;;19.50;52.80;;;;;;10462453;28;20201;-23
2021/03/13 14:13:42;;;;;;;3.20;1.83;;;19.50;52.90;;;;;;10489744;28;20223;-23
2021/03/13 14:19:03;;;;;;;4.97;2.00;;;19.50;53.10;;;;;;10478556;28;20424;-23
2021/03/13 14:24:26;;;;;;;5.37;1.90;;;19.80;52.70;;;;;;10453082;23;20232;-21
2021/03/13 14:29:47;;;;;;;4.67;1.93;;;19.60;52.80;;;;;;10409376;28;20208;-22
2021/03/13 14:35:11;;;;;;;4.07;1.97;;;19.40;52.90;;;;;;10437546;28;20221;-22
2021/03/13 14:40:34;;;;;;;2.90;1.77;;;19.40;53.10;;;;;;10442200;28;20201;-22
2021/03/13 14:45:55;;;;;;;2.97;1.60;;;19.30;53.10;;;;;;10457869;28;20205;-22
2021/03/13 14:51:17;;;;;;;3.87;1.47;;;19.30;53.20;;;;;;10451898;28;20579;-21
2021/03/13 14:56:40;;;;;;;3.97;1.43;;;19.10;53.10;;;;;;10426509;28;20221;-22
2021/03/13 15:02:01;;;;;;;3.47;1.53;;;19.10;52.90;;;;;;10416783;28;20206;-22
2021/03/13 15:07:23;;;;;;;4.37;1.70;;;19.10;53.40;;;;;;10416838;28;20194;-21
2021/03/13 15:12:45;;;;;;;2.30;1.17;;;19.10;53.30;;;;;;10415920;28;20221;-21
2021/03/13 15:18:07;;;;;;;2.43;1.30;;;19.10;53.40;;;;;;10423112;28;20252;-21
2021/03/13 15:23:29;;;;;;;3.37;1.60;;;19.00;53.40;;;;;;10426874;28;20751;-22
2021/03/13 15:28:51;;;;;;;2.47;1.33;;;19.00;53.30;;;;;;10475415;28;20606;-21
2021/03/13 15:34:13;;;;;;;3.47;1.10;;;19.00;53.30;;;;;;10489660;28;20217;-22
2021/03/13 15:39:34;;;;;;;2.90;1.23;;;18.90;53.40;;;;;;10494947;28;20548;-21
2021/03/13 15:44:57;;;;;;;2.43;1.40;;;18.90;53.30;;;;;;10498004;28;20212;-20
2021/03/13 15:50:19;;;;;;;2.30;1.47;;;18.90;53.40;;;;;;10498206;28;20203;-21
2021/03/13 15:55:41;;;;;;;2.50;1.43;;;18.90;53.60;;;;;;10486000;28;20221;-22
2021/03/13 16:01:03;;;;;;;2.50;1.00;;;18.90;53.50;;;;;;10468412;28;20243;-21
2021/03/13 16:06:25;;;;;;;3.57;1.10;;;18.90;54.10;;;;;;10495135;28;20227;-22
2021/03/13 16:11:47;;;;;;;1.80;1.13;;;19.00;54.50;;;;;;10497342;28;20200;-21
2021/03/13 16:17:09;;;;;;;1.47;1.07;;;18.90;54.70;;;;;;10460564;28;20551;-20
2021/03/13 16:22:31;;;;;;;2.70;1.10;;;18.90;54.70;;;;;;10495742;28;20235;-21
2021/03/13 16:27:53;;;;;;;3.10;1.23;;;19.00;54.90;;;;;;10495972;28;20197;-21
2021/03/13 16:33:16;;;;;;;3.90;1.27;;;19.00;55.00;;;;;;10493685;28;20342;-22
2021/03/13 16:38:38;;;;;;;3.17;1.40;;;19.00;54.60;;;;;;10501910;28;20681;-23
2021/03/13 16:44:00;;;;;;;3.13;1.27;;;19.00;54.40;;;;;;10472493;28;20737;-20
2021/03/13 16:49:22;;;;;;;2.83;1.00;;;19.00;54.40;;;;;;10497779;28;20221;-21
2021/03/13 16:54:44;;;;;;;3.60;1.77;;;19.00;54.10;;;;;;10491790;28;20259;-21
2021/03/13 17:00:08;;;;;;;2.97;1.20;;;19.00;54.00;;;;;;10494987;28;20200;-21
2021/03/13 17:05:31;;;;;;;1.60;0.90;;;19.00;54.00;;;;;;10494223;28;20216;-21
2021/03/13 17:10:52;;;;;;;2.10;1.30;;;19.00;54.00;;;;;;10490952;28;20193;-22
2021/03/13 17:16:14;;;;;;;2.50;1.10;;;19.00;53.90;;;;;;10494570;28;20772;-21
2021/03/13 17:21:36;;;;;;;2.23;1.20;;;19.00;54.20;;;;;;10453144;28;20197;-22
2021/03/13 17:26:58;;;;;;;1.90;1.30;;;19.10;54.80;;;;;;10451100;28;20221;-21
2021/03/13 17:32:20;;;;;;;4.10;1.27;;;19.00;55.00;;;;;;10452888;28;20232;-21
2021/03/13 17:37:42;;;;;;;3.47;1.50;;;19.10;55.10;;;;;;10505001;28;20212;-21
2021/03/13 17:43:05;;;;;;;3.80;1.27;;;19.10;54.80;;;;;;10493973;28;20221;-22
2021/03/13 17:48:26;;;;;;;7.73;1.67;;;19.10;54.70;;;;;;10492507;28;20254;-21
2021/03/13 17:53:49;;;;;;;2.90;1.20;;;19.10;54.50;;;;;;10493934;28;20220;-22
2021/03/13 17:59:12;;;;;;;4.00;1.33;;;19.10;54.30;;;;;;10486554;28;20617;-23
2021/03/13 18:04:33;;;;;;;5.03;1.60;;;19.10;54.10;;;;;;10529022;28;20214;-22
2021/03/13 18:09:56;;;;;;;3.80;1.50;;;19.10;54.00;;;;;;10501588;28;20200;-22
2021/03/13 18:15:18;;;;;;;3.40;1.20;;;19.20;54.00;;;;;;10487972;28;20224;-20
2021/03/13 18:20:40;;;;;;;2.77;1.33;;;19.20;54.00;;;;;;10452572;28;20200;-22
2021/03/13 18:26:03;;;;;;;2.30;1.13;;;19.20;53.80;;;;;;10445590;28;20658;-21
2021/03/13 18:31:25;;;;;;;1.43;0.83;;;19.20;53.60;;;;;;10446275;28;20584;-21
2021/03/13 18:36:46;;;;;;;1.63;1.10;;;19.20;53.60;;;;;;10458664;28;20232;-21
2021/03/13 18:42:09;;;;;;;1.63;1.13;;;19.10;53.50;;;;;;10445875;28;20193;-22
2021/03/13 18:47:30;;;;;;;1.67;1.10;;;19.20;53.60;;;;;;10444292;28;20665;-21
2021/03/13 18:52:52;;;;;;;3.47;1.03;;;19.10;53.60;;;;;;10443413;28;20225;-23
2021/03/13 18:58:15;;;;;;;3.20;1.10;;;19.10;53.70;;;;;;10452208;28;20247;-22
2021/03/13 19:03:36;;;;;;;3.40;0.90;;;19.10;53.70;;;;;;10450287;28;20221;-22
2021/03/13 19:08:58;;;;;;;3.43;1.00;;;19.20;53.80;;;;;;10459293;28;20196;-21
2021/03/13 19:14:20;;;;;;;4.17;1.27;;;19.20;53.60;;;;;;10492358;28;20265;-21
2021/03/13 19:19:42;;;;;;;1.83;1.07;;;19.30;53.40;;;;;;10465461;28;20197;-22
2021/03/13 19:25:04;;;;;;;2.77;1.30;;;19.30;53.30;;;;;;10450146;28;20569;-22
2021/03/13 19:30:27;;;;;;;2.67;0.90;;;19.40;53.10;;;;;;10450926;28;20197;-21
2021/03/13 19:35:49;;;;;;;3.37;1.10;;;19.50;53.00;;;;;;10475760;28;20232;-22
2021/03/13 19:41:15;;;;;;;1.93;0.93;;;19.50;53.10;;;;;;10510176;28;20683;-22
2021/03/13 19:46:37;;;;;;;2.33;0.60;;;19.50;53.00;;;;;;10491498;28;20224;-22
2021/03/13 19:51:59;;;;;;;1.43;0.90;;;19.50;53.10;;;;;;10491036;28;20201;-21
2021/03/13 19:57:22;;;;;;;1.70;0.90;;;19.50;53.10;;;;;;10492419;28;20227;-22
2021/03/13 20:02:44;;;;;;;3.73;1.10;;;19.60;53.10;;;;;;10465806;28;20236;-22
2021/03/13 20:08:07;;;;;;;1.37;0.60;;;19.50;53.20;;;;;;10449221;28;20193;-22
2021/03/13 20:13:28;;;;;;;1.10;0.77;;;19.60;53.20;;;;;;10449185;28;20244;-22
2021/03/13 20:18:51;;;;;;;1.40;0.90;;;19.60;53.20;;;;;;10467437;28;20567;-22
2021/03/13 20:24:12;;;;;;;1.30;0.60;;;19.60;53.40;;;;;;10503379;23;20747;-24
2021/03/13 20:29:34;;;;;;;2.80;0.80;;;19.50;53.40;;;;;;10357571;28;20206;-25
2021/03/13 20:34:57;;;;;;;1.73;0.73;;;19.50;53.40;;;;;;10379902;28;20224;-25
2021/03/13 20:40:21;;;;;;;1.63;0.80;;;19.50;53.30;;;;;;10331640;28;20199;-24
2021/03/13 20:45:43;;;;;;;1.67;0.80;;;19.50;53.30;;;;;;10373072;28;20218;-25
2021/03/13 20:51:06;;;;;;;1.60;0.83;;;19.50;53.40;;;;;;10378251;28;20204;-25
2021/03/13 20:56:27;;;;;;;1.50;0.70;;;19.50;53.30;;;;;;10406079;28;20229;-25
2021/03/13 21:01:49;;;;;;;1.10;0.63;;;19.50;53.40;;;;;;10412136;28;20214;-24
2021/03/13 21:07:12;;;;;;;2.33;0.90;;;19.50;53.50;;;;;;10370303;28;20613;-25
2021/03/13 21:12:34;;;;;;;2.03;0.90;;;19.50;53.50;;;;;;10370162;28;20190;-24
2021/03/13 21:17:55;;;;;;;1.37;0.70;;;19.50;53.40;;;;;;10380869;28;20226;-27
2021/03/13 21:23:18;;;;;;;2.53;1.07;;;19.50;53.40;;;;;;10415068;28;20230;-25
2021/03/13 21:28:39;;;;;;;0.90;0.60;;;19.50;53.40;;;;;;10453538;28;20669;-26
2021/03/13 21:34:01;;;;;;;1.20;0.77;;;19.50;53.40;;;;;;10441836;28;20231;-25
2021/03/13 21:39:23;;;;;;;1.47;0.80;;;19.40;53.40;;;;;;10441775;28;20588;-24
2021/03/13 21:44:45;;;;;;;1.23;0.70;;;19.40;53.40;;;;;;10453132;28;20261;-24
2021/03/13 21:50:08;;;;;;;1.53;0.70;;;19.40;53.40;;;;;;10452359;28;20226;-25
2021/03/13 21:55:30;;;;;;;1.87;0.60;;;19.40;53.40;;;;;;10451137;28;20588;-25
2021/03/13 22:00:52;;;;;;;2.17;0.93;;;19.40;53.30;;;;;;10451770;28;20675;-24
2021/03/13 22:06:13;;;;;;;2.40;0.80;;;19.40;53.30;;;;;;10452082;28;20205;-26
2021/03/13 22:11:36;;;;;;;1.83;0.87;;;19.40;53.30;;;;;;10442907;28;20240;-25
2021/03/13 22:16:57;;;;;;;1.20;0.63;;;19.40;53.30;;;;;;10451075;28;20224;-24
2021/03/13 22:22:19;;;;;;;2.13;0.83;;;19.40;53.30;;;;;;10451694;28;20193;-25
2021/03/13 22:27:43;;;;;;;1.53;0.77;;;19.40;53.30;;;;;;10451089;28;20200;-25
2021/03/13 22:33:04;;;;;;;1.03;0.70;;;19.30;53.20;;;;;;10439488;28;20708;-25
2021/03/13 22:38:26;;;;;;;3.67;0.80;;;19.30;53.20;;;;;;10456297;28;20687;-24
2021/03/13 22:43:49;;;;;;;2.57;0.90;;;19.30;53.70;;;;;;10458219;28;20229;-25
2021/03/13 22:49:11;;;;;;;1.97;0.70;;;19.20;53.70;;;;;;10459170;28;20582;-24
2021/03/13 22:54:32;;;;;;;1.10;0.70;;;19.10;53.80;;;;;;10452280;28;20217;-25
2021/03/13 22:59:55;;;;;;;2.07;0.90;;;19.10;53.80;;;;;;10447354;28;20205;-24
2021/03/13 23:05:16;;;;;;;0.63;0.43;;;19.00;53.80;;;;;;10452275;28;20581;-25
2021/03/13 23:10:39;;;;;;;1.40;0.70;;;19.00;53.90;;;;;;10457633;28;20193;-24
2021/03/13 23:16:02;;;;;;;1.70;0.70;;;19.00;53.90;;;;;;10457870;28;20224;-25
2021/03/13 23:21:24;;;;;;;2.40;0.80;;;18.90;53.80;;;;;;10457407;28;20284;-25
2021/03/13 23:26:46;;;;;;;1.30;0.87;;;18.90;53.90;;;;;;10457238;28;20223;-24
2021/03/13 23:32:10;;;;;;;1.00;0.60;;;18.90;53.80;;;;;;10456652;28;20413;-24
2021/03/13 23:37:31;;;;;;;0.97;0.60;;;18.90;54.00;;;;;;10448910;28;20820;-25
2021/03/13 23:42:53;;;;;;;1.97;0.77;;;18.90;54.00;;;;;;10457271;28;20859;-24
2021/03/13 23:48:16;;;;;;;1.43;0.50;;;18.80;54.10;;;;;;10456589;28;20197;-24
2021/03/13 23:53:37;;;;;;;0.93;0.53;;;18.80;53.90;;;;;;10456404;28;20225;-24
2021/03/13 23:58:59;;;;;;;0.60;0.40;;;18.80;54.10;;;;;;10456741;28;20193;-24
